This is the latest recevied weather packets stored in our database for station/object SQ8AQL-16. If no packets are shown the sender has not sent any weather packets the latest 10 day(s).
| Time | Temp. | Humidity | Pressure | Rain* | Wind** | Luminosity | Snow |
|---|---|---|---|---|---|---|---|
| 1777734902 | 29.44° C | 18% | 1023.6 hPa | - | - | 310 W/m² | - |
| 1777734001 | 30.56° C | 18% | 1023.7 hPa | - | - | 359 W/m² | - |
| 1777733100 | 28.89° C | 19% | 1023.9 hPa | - | - | 401 W/m² | - |
| 1777732198 | 30.56° C | 17% | 1024 hPa | - | - | 461 W/m² | - |
| 1777731298 | 30.56° C | 17% | 1024.2 hPa | - | - | 495 W/m² | - |
| 1777730397 | 30° C | 18% | 1024.2 hPa | - | - | 521 W/m² | - |
| 1777729497 | 30.56° C | 17% | 1024.4 hPa | - | - | 553 W/m² | - |
| 1777728595 | 30.56° C | 18% | 1024.5 hPa | - | - | 603 W/m² | - |
| 1777727694 | 30.56° C | 18% | 1024.7 hPa | - | - | 675 W/m² | - |
| 1777726792 | 28.89° C | 19% | 1024.9 hPa | - | - | 681 W/m² | - |
| 1777725891 | 30.56° C | 18% | 1025.1 hPa | - | - | 734 W/m² | - |
| 1777724990 | 30.56° C | 18% | 1025.3 hPa | - | - | 571 W/m² | - |
| 1777724089 | 30.56° C | 17% | 1025.5 hPa | - | - | 795 W/m² | - |
| 1777723189 | 30.56° C | 18% | 1025.7 hPa | - | - | 810 W/m² | - |
| 1777722288 | 28.89° C | 19% | 1025.9 hPa | - | - | 837 W/m² | - |
| 1777721387 | 29.44° C | 19% | 1026 hPa | - | - | 872 W/m² | - |
| 1777720486 | 28.89° C | 20% | 1026.2 hPa | - | - | 898 W/m² | - |
| 1777719585 | 28.89° C | 19% | 1026.3 hPa | - | - | 875 W/m² | - |
| 1777718684 | 29.44° C | 20% | 1026.6 hPa | - | - | 766 W/m² | - |
| 1777717783 | 28.33° C | 22% | 1026.6 hPa | - | - | 808 W/m² | - |
| 1777716882 | 26.11° C | 23% | 1026.7 hPa | - | - | 763 W/m² | - |
| 1777715981 | 25.56° C | 25% | 1026.8 hPa | - | - | 753 W/m² | - |
| 1777715080 | 21.67° C | 29% | 1027 hPa | - | - | 724 W/m² | - |
| 1777714179 | 18.89° C | 36% | 1027.1 hPa | - | - | 101 W/m² | - |
| 1777713279 | 17.78° C | 37% | 1027.2 hPa | - | - | 49 W/m² | - |
* Rain since midnight (hover to see other rain measurements)
** Current wind speed in m/s (hover to see current wind gust speed)